Time;durP1;ratioP1;P1;durP2;ratioP2;P2;SDS_P1;SDS_P2;PMS_P1;PMS_P2;Temp;Humidity;BMP_temperature;BMP_pressure;BME280_temperature;BME280_humidity;BME280_pressure;Samples;Min_cycle;Max_cycle;Signal;HPM_P1;HPM_P2
2023/09/26 00:00:55;;;;;;;8.73;8.33;;;14.20;78.40;;;;;;6186140;28;20689;-82
2023/09/26 00:03:58;;;;;;;9.37;8.73;;;14.10;78.50;;;;;;6181777;28;20232;-82
2023/09/26 00:07:02;;;;;;;9.17;8.47;;;14.10;78.60;;;;;;6189076;28;20243;-80
2023/09/26 00:10:09;;;;;;;8.93;8.43;;;14.10;78.60;;;;;;6185509;28;20243;-82
2023/09/26 00:13:12;;;;;;;9.53;8.93;;;14.10;78.70;;;;;;6183891;28;20240;-81
2023/09/26 00:16:16;;;;;;;9.10;8.60;;;14.10;78.70;;;;;;6188798;28;20247;-81
2023/09/26 00:19:19;;;;;;;8.50;8.10;;;14.10;78.70;;;;;;6186774;28;20232;-82
2023/09/26 00:22:23;;;;;;;7.87;7.47;;;14.10;78.80;;;;;;6183846;28;20232;-80
2023/09/26 00:25:27;;;;;;;8.83;8.40;;;14.00;78.90;;;;;;6185007;28;20240;-80
2023/09/26 00:28:31;;;;;;;9.27;8.70;;;14.00;79.00;;;;;;6187530;28;20232;-82
2023/09/26 00:31:35;;;;;;;8.73;8.27;;;14.00;78.90;;;;;;6186706;28;20314;-81
2023/09/26 00:34:39;;;;;;;8.43;7.93;;;14.00;79.00;;;;;;6187968;28;20246;-81
2023/09/26 00:37:42;;;;;;;9.57;9.07;;;14.00;79.10;;;;;;6187609;28;20267;-80
2023/09/26 00:40:47;;;;;;;10.30;9.60;;;14.00;79.10;;;;;;6179478;28;20239;-80
2023/09/26 00:43:50;;;;;;;10.70;10.00;;;14.00;79.20;;;;;;6195427;28;20236;-82
2023/09/26 00:46:55;;;;;;;11.27;10.47;;;14.00;79.40;;;;;;6188379;28;20239;-80
2023/09/26 00:49:58;;;;;;;10.40;9.60;;;14.00;79.40;;;;;;6174461;28;20639;-82
2023/09/26 00:53:03;;;;;;;10.27;9.70;;;14.00;79.50;;;;;;6184580;28;20728;-81
2023/09/26 00:56:09;;;;;;;11.70;10.80;;;14.00;79.60;;;;;;6188175;28;20247;-80
2023/09/26 00:59:12;;;;;;;10.93;10.20;;;14.00;79.70;;;;;;6184191;28;20328;-79
2023/09/26 01:02:16;;;;;;;10.93;10.23;;;14.00;79.80;;;;;;6186623;28;20735;-83
2023/09/26 01:05:19;;;;;;;10.43;9.73;;;14.00;79.70;;;;;;6188314;28;20232;-80
2023/09/26 01:08:22;;;;;;;12.23;11.43;;;14.00;79.80;;;;;;6185040;28;20315;-80
2023/09/26 01:11:27;;;;;;;11.23;10.30;;;14.00;79.90;;;;;;6185510;28;20750;-81
2023/09/26 01:14:31;;;;;;;13.17;12.27;;;14.00;80.00;;;;;;6178527;28;20753;-80
2023/09/26 01:17:34;;;;;;;11.50;10.80;;;14.00;80.10;;;;;;6187469;28;20247;-80
2023/09/26 01:20:43;;;;;;;11.50;10.77;;;14.10;80.20;;;;;;6188996;28;20273;-81
2023/09/26 01:23:54;;;;;;;11.70;10.90;;;14.10;80.10;;;;;;6187916;28;20240;-81
2023/09/26 01:26:59;;;;;;;10.93;10.13;;;14.10;80.20;;;;;;6187498;28;20232;-80
2023/09/26 01:30:03;;;;;;;10.47;9.77;;;14.10;80.20;;;;;;6186807;28;20244;-81
2023/09/26 01:33:11;;;;;;;10.20;9.43;;;14.10;80.20;;;;;;6179880;28;20251;-82
2023/09/26 01:36:14;;;;;;;10.50;9.80;;;14.10;80.20;;;;;;6186492;28;20240;-82
2023/09/26 01:39:19;;;;;;;10.20;9.60;;;14.10;80.20;;;;;;6177779;28;20327;-79
2023/09/26 01:42:22;;;;;;;10.13;9.53;;;14.10;80.20;;;;;;6188910;28;20708;-82
2023/09/26 01:45:25;;;;;;;9.80;9.20;;;14.00;80.30;;;;;;6186858;28;20247;-79
2023/09/26 01:48:28;;;;;;;9.73;9.13;;;14.10;80.30;;;;;;6190352;28;20244;-82
2023/09/26 01:51:31;;;;;;;10.37;9.83;;;14.10;80.30;;;;;;6187576;28;20250;-81
2023/09/26 01:54:36;;;;;;;11.43;10.67;;;14.00;80.40;;;;;;6200448;28;20244;-81
2023/09/26 01:57:39;;;;;;;11.40;10.60;;;14.00;80.40;;;;;;6192241;28;20275;-82
2023/09/26 02:00:42;;;;;;;11.10;10.33;;;14.00;80.40;;;;;;6190211;28;20319;-82
2023/09/26 02:03:45;;;;;;;10.43;9.63;;;14.00;80.50;;;;;;6190862;28;20887;-83
2023/09/26 02:06:48;;;;;;;10.57;9.77;;;14.00;80.50;;;;;;6190502;28;20232;-81
2023/09/26 02:09:53;;;;;;;10.20;9.60;;;13.90;80.50;;;;;;6189770;28;20239;-82
2023/09/26 02:12:56;;;;;;;10.87;10.17;;;13.90;80.50;;;;;;6186198;28;20363;-82
2023/09/26 02:16:00;;;;;;;14.17;13.07;;;13.90;80.50;;;;;;6191086;28;20723;-80
2023/09/26 02:19:09;;;;;;;12.27;11.33;;;13.90;80.70;;;;;;6190025;28;20244;-80
2023/09/26 02:22:12;;;;;;;12.13;11.30;;;13.90;81.00;;;;;;6188977;28;20712;-80
2023/09/26 02:25:19;;;;;;;11.67;10.87;;;13.80;80.80;;;;;;6191491;28;20727;-81
2023/09/26 02:28:22;;;;;;;10.80;10.00;;;13.80;80.80;;;;;;6213735;28;20228;-79
2023/09/26 02:31:25;;;;;;;10.60;10.00;;;13.70;80.90;;;;;;6222481;28;20252;-81
2023/09/26 02:34:29;;;;;;;11.20;10.47;;;13.70;80.90;;;;;;6223383;28;20243;-77
2023/09/26 02:37:32;;;;;;;10.80;10.17;;;13.70;81.00;;;;;;6215706;28;20239;-78
2023/09/26 02:40:37;;;;;;;13.03;12.03;;;13.70;81.00;;;;;;6217200;28;20235;-81
2023/09/26 02:43:40;;;;;;;10.47;9.87;;;13.60;81.00;;;;;;6224500;28;20231;-81
2023/09/26 02:46:43;;;;;;;12.13;11.33;;;13.60;81.10;;;;;;6223267;28;20244;-82
2023/09/26 02:49:46;;;;;;;14.03;12.73;;;13.60;81.20;;;;;;6221645;28;20224;-80
2023/09/26 02:52:49;;;;;;;14.60;13.33;;;13.60;81.40;;;;;;6221085;28;20224;-81
2023/09/26 02:55:54;;;;;;;14.97;13.57;;;13.60;81.40;;;;;;6222497;28;20280;-81
2023/09/26 02:58:57;;;;;;;14.10;13.00;;;13.60;81.90;;;;;;6211985;28;20255;-80
2023/09/26 03:02:01;;;;;;;14.80;13.73;;;13.60;81.80;;;;;;6218309;28;20236;-81
2023/09/26 03:05:04;;;;;;;13.43;12.43;;;13.50;81.80;;;;;;6222460;28;20239;-82
2023/09/26 03:08:09;;;;;;;17.63;16.17;;;13.50;81.80;;;;;;6221231;28;20242;-83
2023/09/26 03:11:14;;;;;;;16.10;14.90;;;13.60;82.20;;;;;;6211100;28;20255;-80
2023/09/26 03:14:19;;;;;;;16.83;15.27;;;13.50;82.50;;;;;;6223206;28;20320;-81
2023/09/26 03:17:22;;;;;;;16.40;15.13;;;13.60;82.40;;;;;;6222210;28;20256;-79
2023/09/26 03:20:25;;;;;;;13.97;12.80;;;13.60;82.60;;;;;;6216223;28;20223;-81
2023/09/26 03:23:28;;;;;;;17.43;16.03;;;13.50;82.40;;;;;;6222056;28;20286;-81
2023/09/26 03:26:33;;;;;;;16.17;14.87;;;13.50;82.30;;;;;;6220210;28;20235;-81
2023/09/26 03:29:36;;;;;;;16.57;15.17;;;13.50;82.50;;;;;;6220475;28;20211;-81
2023/09/26 03:32:39;;;;;;;16.40;14.90;;;13.50;82.60;;;;;;6215114;28;20248;-80
2023/09/26 03:35:43;;;;;;;13.80;12.90;;;13.50;82.50;;;;;;6218519;28;20255;-79
2023/09/26 03:38:46;;;;;;;15.53;14.13;;;13.50;82.50;;;;;;6214227;28;20307;-82
2023/09/26 03:41:50;;;;;;;16.07;14.73;;;13.50;82.50;;;;;;6192916;28;20248;-80
2023/09/26 03:44:54;;;;;;;18.67;17.13;;;13.50;82.70;;;;;;6191637;28;20263;-81
2023/09/26 03:47:57;;;;;;;15.40;14.20;;;13.50;82.90;;;;;;6191672;28;20240;-82
2023/09/26 03:51:08;;;;;;;16.40;15.10;;;13.50;82.80;;;;;;6189674;28;20240;-79
2023/09/26 03:54:12;;;;;;;17.70;16.20;;;13.50;82.90;;;;;;6190251;28;20251;-81
2023/09/26 03:57:16;;;;;;;17.47;16.00;;;13.50;82.90;;;;;;6187294;28;20851;-82
2023/09/26 04:00:25;;;;;;;16.63;15.03;;;13.50;83.00;;;;;;6181060;28;20756;-80
2023/09/26 04:03:29;;;;;;;21.10;19.10;;;13.40;83.00;;;;;;6192928;28;20914;-80
2023/09/26 04:06:33;;;;;;;17.23;15.73;;;13.40;83.30;;;;;;6186282;28;20377;-81
2023/09/26 04:09:36;;;;;;;19.20;17.40;;;13.40;83.30;;;;;;6183085;28;20727;-81
2023/09/26 04:12:41;;;;;;;20.50;18.53;;;13.40;83.30;;;;;;6189252;28;20600;-80
2023/09/26 04:15:45;;;;;;;17.63;16.27;;;13.40;83.50;;;;;;6182316;28;20302;-82
2023/09/26 04:18:48;;;;;;;16.57;15.27;;;13.40;83.30;;;;;;6178394;28;20247;-81
2023/09/26 04:21:54;;;;;;;15.77;14.40;;;13.40;83.30;;;;;;6176484;28;20243;-80
2023/09/26 04:24:57;;;;;;;17.50;16.20;;;13.30;83.30;;;;;;6183144;28;20704;-82
2023/09/26 04:28:02;;;;;;;16.83;15.30;;;13.30;83.40;;;;;;6186178;28;20232;-80
2023/09/26 04:31:06;;;;;;;16.93;15.57;;;13.30;83.40;;;;;;6188520;28;20263;-82
2023/09/26 04:34:09;;;;;;;18.40;16.63;;;13.30;83.30;;;;;;6180137;28;20986;-81
2023/09/26 04:37:12;;;;;;;16.87;15.47;;;13.30;83.50;;;;;;6192604;28;20247;-80
2023/09/26 04:40:17;;;;;;;17.20;15.80;;;13.30;83.40;;;;;;6183683;28;20788;-81
2023/09/26 04:43:22;;;;;;;18.47;16.87;;;13.30;83.40;;;;;;6178454;28;20279;-82
2023/09/26 04:46:25;;;;;;;20.83;18.73;;;13.20;83.40;;;;;;6187555;28;20255;-78
2023/09/26 04:49:28;;;;;;;16.37;14.87;;;13.30;83.70;;;;;;6186373;28;20240;-80
2023/09/26 04:52:31;;;;;;;19.37;17.67;;;13.20;83.50;;;;;;6186394;28;20603;-80
2023/09/26 04:55:36;;;;;;;18.30;16.80;;;13.20;83.50;;;;;;6187579;28;20228;-81
2023/09/26 04:58:41;;;;;;;19.97;18.17;;;13.20;83.50;;;;;;6187429;28;20240;-78
2023/09/26 05:01:45;;;;;;;18.90;17.30;;;13.20;83.60;;;;;;6187189;28;20716;-82
2023/09/26 05:04:49;;;;;;;19.90;18.10;;;13.10;83.60;;;;;;6185221;28;20255;-82
2023/09/26 05:07:52;;;;;;;20.27;18.43;;;13.20;83.60;;;;;;6189483;28;20325;-80
2023/09/26 05:10:55;;;;;;;23.87;20.87;;;13.20;83.60;;;;;;6186148;28;20278;-77
2023/09/26 05:14:00;;;;;;;19.53;17.63;;;13.10;83.70;;;;;;6185646;28;20730;-81
2023/09/26 05:17:03;;;;;;;19.60;17.90;;;13.10;83.80;;;;;;6183114;28;20240;-82
2023/09/26 05:20:09;;;;;;;20.07;18.27;;;13.20;83.60;;;;;;6187253;28;20247;-82
2023/09/26 05:23:12;;;;;;;19.50;17.90;;;13.10;83.70;;;;;;6191974;28;20239;-79
2023/09/26 05:26:15;;;;;;;21.67;19.77;;;13.10;83.90;;;;;;6191792;28;20749;-80
2023/09/26 05:29:20;;;;;;;21.10;19.10;;;13.10;83.80;;;;;;6184632;28;20878;-76
2023/09/26 05:32:23;;;;;;;20.93;18.87;;;13.20;83.90;;;;;;6186335;28;20382;-77
2023/09/26 05:35:26;;;;;;;23.13;20.70;;;13.10;83.90;;;;;;6189612;28;20897;-77
2023/09/26 05:38:29;;;;;;;22.70;20.50;;;13.20;84.20;;;;;;6186868;28;20236;-75
2023/09/26 05:41:32;;;;;;;23.43;21.13;;;13.30;84.30;;;;;;6186293;28;20782;-78
2023/09/26 05:44:37;;;;;;;21.10;18.57;;;13.30;84.10;;;;;;6186532;28;20242;-78
2023/09/26 05:47:40;;;;;;;21.77;19.67;;;13.30;84.10;;;;;;6189075;28;20328;-81
2023/09/26 05:50:43;;;;;;;20.47;18.67;;;13.30;84.00;;;;;;6187121;28;20235;-78
2023/09/26 05:53:46;;;;;;;23.37;19.97;;;13.30;84.00;;;;;;6190670;28;20822;-81
2023/09/26 05:56:49;;;;;;;21.17;18.97;;;13.40;84.00;;;;;;6192670;28;20863;-81
2023/09/26 05:59:54;;;;;;;27.40;21.50;;;13.50;84.00;;;;;;6191709;28;20708;-79
2023/09/26 06:02:57;;;;;;;21.50;19.50;;;13.50;84.00;;;;;;6185020;28;20915;-81
2023/09/26 06:06:04;;;;;;;22.53;20.47;;;13.60;83.90;;;;;;6191999;28;20242;-79
2023/09/26 06:09:07;;;;;;;21.63;19.53;;;13.60;83.80;;;;;;6187493;28;20225;-78
2023/09/26 06:12:10;;;;;;;24.57;21.90;;;13.70;83.80;;;;;;6184031;28;20236;-81
2023/09/26 06:15:14;;;;;;;20.70;18.70;;;13.70;83.70;;;;;;6181006;28;20292;-80
2023/09/26 06:18:18;;;;;;;23.87;21.67;;;13.80;83.60;;;;;;6187997;28;20232;-81
2023/09/26 06:21:21;;;;;;;23.37;21.13;;;13.90;83.50;;;;;;6191507;28;20231;-80
2023/09/26 06:24:24;;;;;;;24.67;22.27;;;13.90;83.30;;;;;;6187825;28;20251;-81
2023/09/26 06:27:28;;;;;;;22.47;20.37;;;13.90;83.20;;;;;;6192143;28;20337;-80
2023/09/26 06:30:33;;;;;;;23.20;20.77;;;14.00;83.20;;;;;;6191400;28;20614;-81
2023/09/26 06:33:37;;;;;;;22.53;20.43;;;14.00;83.20;;;;;;6188250;28;20243;-80
2023/09/26 06:36:41;;;;;;;21.57;19.63;;;14.10;83.00;;;;;;6186492;28;20371;-79
2023/09/26 06:39:44;;;;;;;26.57;23.07;;;14.20;82.90;;;;;;6198998;28;20244;-78
2023/09/26 06:42:47;;;;;;;23.83;21.40;;;14.30;82.30;;;;;;6189755;28;20232;-80
2023/09/26 06:45:51;;;;;;;23.17;21.03;;;14.30;82.20;;;;;;6182056;28;20259;-81
2023/09/26 06:48:55;;;;;;;21.17;19.37;;;14.30;82.10;;;;;;6189822;28;20240;-80
2023/09/26 06:51:58;;;;;;;20.40;18.43;;;14.40;82.20;;;;;;6193289;28;20239;-80
2023/09/26 06:55:02;;;;;;;24.40;22.07;;;14.50;82.10;;;;;;6189825;28;20319;-80
2023/09/26 06:58:06;;;;;;;24.93;22.23;;;14.50;81.50;;;;;;6189848;28;20263;-80
2023/09/26 07:01:15;;;;;;;23.17;20.97;;;14.50;81.50;;;;;;6190003;28;20252;-79
2023/09/26 07:04:18;;;;;;;23.03;20.83;;;14.60;82.10;;;;;;6190596;28;20484;-79
2023/09/26 07:07:22;;;;;;;22.53;20.37;;;14.70;81.10;;;;;;6190174;28;20244;-81
2023/09/26 07:10:26;;;;;;;23.77;20.30;;;15.30;82.50;;;;;;6180054;28;20236;-78
2023/09/26 07:13:29;;;;;;;22.77;18.73;;;16.00;79.60;;;;;;6189177;28;20251;-79
2023/09/26 07:16:54;;;;;;;25.73;21.33;;;16.10;78.60;;;;;;6186131;28;20248;-79
2023/09/26 07:19:57;;;;;;;20.23;18.30;;;16.00;77.20;;;;;;6190337;28;20235;-81
2023/09/26 07:23:03;;;;;;;19.77;17.90;;;16.00;77.90;;;;;;6180173;28;20235;-82
2023/09/26 07:26:12;;;;;;;21.33;19.43;;;15.90;78.00;;;;;;6186812;28;20323;-79
2023/09/26 07:29:18;;;;;;;22.50;20.60;;;15.90;78.10;;;;;;6190646;28;20247;-80
2023/09/26 07:32:22;;;;;;;21.60;19.70;;;15.80;77.90;;;;;;6189708;28;20561;-80
2023/09/26 07:35:27;;;;;;;22.87;20.77;;;15.80;77.80;;;;;;6191290;28;20256;-81
2023/09/26 07:38:31;;;;;;;21.40;19.30;;;16.00;77.70;;;;;;6190614;28;20292;-81
2023/09/26 07:41:34;;;;;;;22.33;20.03;;;16.00;77.50;;;;;;6188543;28;20248;-81
2023/09/26 07:44:37;;;;;;;20.60;18.60;;;16.00;77.60;;;;;;6185943;28;20251;-78
2023/09/26 07:47:42;;;;;;;22.10;19.97;;;16.00;77.70;;;;;;6191266;28;20260;-79
2023/09/26 07:50:45;;;;;;;22.83;20.73;;;16.10;77.80;;;;;;6187724;28;20291;-79
2023/09/26 07:53:48;;;;;;;21.23;19.23;;;16.10;77.80;;;;;;6192132;28;20295;-77
2023/09/26 07:56:52;;;;;;;20.97;19.17;;;16.20;77.70;;;;;;6192240;28;20236;-81
2023/09/26 07:59:55;;;;;;;23.17;20.90;;;16.30;77.40;;;;;;6193766;28;20843;-80
2023/09/26 08:03:00;;;;;;;19.77;18.00;;;16.40;77.20;;;;;;6188074;28;20330;-78
2023/09/26 08:06:04;;;;;;;21.40;19.40;;;16.50;77.10;;;;;;6192737;28;20287;-79
2023/09/26 08:09:07;;;;;;;22.80;20.40;;;16.60;76.50;;;;;;6191720;28;20239;-78
2023/09/26 08:12:10;;;;;;;19.77;18.10;;;16.70;76.00;;;;;;6190604;28;20239;-79
2023/09/26 08:15:14;;;;;;;18.60;16.93;;;16.90;75.70;;;;;;6187200;28;20962;-78
2023/09/26 08:18:18;;;;;;;23.40;21.00;;;17.00;75.80;;;;;;6186672;28;20247;-78
2023/09/26 08:21:21;;;;;;;22.20;20.10;;;17.00;75.10;;;;;;6186492;28;20323;-79
2023/09/26 08:24:24;;;;;;;22.60;20.53;;;17.10;75.00;;;;;;6187785;28;20263;-78
2023/09/26 08:27:28;;;;;;;20.70;18.77;;;17.00;75.10;;;;;;6183790;28;20302;-79
2023/09/26 08:30:33;;;;;;;21.90;20.03;;;17.10;75.10;;;;;;6189716;28;20240;-80
2023/09/26 08:33:38;;;;;;;21.33;19.30;;;17.20;74.60;;;;;;6189012;28;20240;-79
2023/09/26 08:36:41;;;;;;;19.77;17.87;;;17.20;74.70;;;;;;6188735;28;20239;-79
2023/09/26 08:39:44;;;;;;;21.77;18.27;;;17.40;74.40;;;;;;6188063;28;20762;-79
2023/09/26 08:42:49;;;;;;;18.83;17.07;;;17.50;74.10;;;;;;6189653;28;20231;-80
2023/09/26 08:45:53;;;;;;;15.50;14.10;;;17.50;74.20;;;;;;6173944;28;20236;-79
2023/09/26 08:49:00;;;;;;;18.60;16.40;;;17.70;74.20;;;;;;6186373;28;20236;-81
2023/09/26 08:52:04;;;;;;;19.20;17.27;;;17.90;73.30;;;;;;6186805;28;20310;-80
2023/09/26 08:55:09;;;;;;;17.80;16.13;;;18.00;72.80;;;;;;6185780;28;20236;-77
2023/09/26 08:58:14;;;;;;;17.03;15.53;;;18.10;72.60;;;;;;6186232;28;20236;-80
2023/09/26 09:01:18;;;;;;;17.93;16.13;;;18.20;72.20;;;;;;6185978;28;20319;-82
2023/09/26 09:04:24;;;;;;;19.60;16.40;;;18.30;72.00;;;;;;6180665;28;20239;-77
2023/09/26 09:07:28;;;;;;;18.00;16.13;;;18.40;72.10;;;;;;6188758;28;20258;-79
2023/09/26 09:10:31;;;;;;;16.03;14.67;;;18.50;71.90;;;;;;6184361;28;20324;-78
2023/09/26 09:13:37;;;;;;;17.70;16.07;;;18.60;71.50;;;;;;6183784;28;20597;-80
2023/09/26 09:16:54;;;;;;;16.50;14.90;;;18.70;71.30;;;;;;6185298;28;20240;-80
2023/09/26 09:19:59;;;;;;;16.17;14.87;;;18.90;71.10;;;;;;6185781;28;20247;-78
2023/09/26 09:23:03;;;;;;;17.93;14.83;;;18.90;70.90;;;;;;6180367;28;20239;-78
2023/09/26 09:26:12;;;;;;;17.73;15.60;;;19.10;70.60;;;;;;6181876;28;20259;-81
2023/09/26 09:29:17;;;;;;;15.77;14.17;;;19.20;70.00;;;;;;6183815;28;20271;-79
2023/09/26 09:32:20;;;;;;;15.53;14.00;;;19.30;70.10;;;;;;6188624;28;20741;-80
2023/09/26 09:35:25;;;;;;;14.43;13.33;;;19.30;70.00;;;;;;6183092;28;20240;-78
2023/09/26 09:38:35;;;;;;;14.93;13.50;;;19.60;68.90;;;;;;6171856;28;20231;-80
2023/09/26 09:41:40;;;;;;;12.53;11.53;;;19.70;69.00;;;;;;6166818;28;20784;-80
2023/09/26 09:44:43;;;;;;;12.57;11.37;;;19.80;68.70;;;;;;6199016;28;20224;-79
2023/09/26 09:47:47;;;;;;;13.40;12.40;;;20.00;68.00;;;;;;6188596;28;20320;-79
2023/09/26 09:50:55;;;;;;;11.90;10.80;;;20.10;67.60;;;;;;6182230;28;20240;-79
2023/09/26 09:54:04;;;;;;;12.00;10.83;;;20.20;67.40;;;;;;6188816;28;20592;-80
2023/09/26 09:57:10;;;;;;;11.83;10.93;;;20.50;66.50;;;;;;6186700;28;20318;-78
2023/09/26 10:00:14;;;;;;;12.30;11.27;;;20.50;66.50;;;;;;6181605;28;20243;-78
2023/09/26 10:03:18;;;;;;;10.60;9.83;;;20.50;66.20;;;;;;6187748;28;20759;-80
2023/09/26 10:06:23;;;;;;;11.43;10.67;;;20.60;66.50;;;;;;6187096;28;20716;-78
2023/09/26 10:09:27;;;;;;;11.27;10.40;;;20.70;65.20;;;;;;6191425;28;20244;-80
2023/09/26 10:12:32;;;;;;;9.60;8.90;;;20.80;65.00;;;;;;6193626;28;20310;-78
2023/09/26 10:16:14;;;;;;;12.33;11.20;;;20.90;65.40;;;;;;6175064;28;20247;-79
2023/09/26 10:19:19;;;;;;;10.50;9.40;;;21.10;64.30;;;;;;6193083;28;20840;-79
2023/09/26 10:22:41;;;;;;;8.67;7.77;;;21.20;64.80;;;;;;6193552;28;20241;-79
2023/09/26 10:25:44;;;;;;;10.80;9.87;;;21.50;65.00;;;;;;6189640;28;20710;-77
2023/09/26 10:28:47;;;;;;;10.47;9.57;;;21.50;63.40;;;;;;6192753;28;20232;-78
2023/09/26 10:31:54;;;;;;;10.37;9.13;;;21.50;63.10;;;;;;6192890;28;20243;-79
2023/09/26 10:34:59;;;;;;;12.53;9.27;;;21.50;63.50;;;;;;6182070;28;20390;-79
2023/09/26 10:38:10;;;;;;;13.07;8.20;;;21.70;63.40;;;;;;6192005;28;20249;-79
2023/09/26 10:41:14;;;;;;;10.23;9.23;;;21.90;63.50;;;;;;6186295;28;20232;-79
2023/09/26 10:44:17;;;;;;;8.37;7.77;;;22.20;61.70;;;;;;6187963;28;20232;-79
2023/09/26 10:47:23;;;;;;;10.63;7.67;;;22.30;61.70;;;;;;6189002;28;20247;-78
2023/09/26 10:50:26;;;;;;;7.77;7.00;;;22.50;61.20;;;;;;6181907;28;20236;-78
2023/09/26 10:53:30;;;;;;;9.23;8.23;;;22.60;61.10;;;;;;6187718;28;20247;-78
2023/09/26 10:56:34;;;;;;;6.87;6.47;;;22.60;60.50;;;;;;6187572;28;20905;-79
2023/09/26 10:59:37;;;;;;;8.13;7.43;;;22.60;61.10;;;;;;6187374;28;20231;-79
2023/09/26 11:02:40;;;;;;;8.63;8.00;;;22.70;61.10;;;;;;6190454;28;20283;-76
2023/09/26 11:05:44;;;;;;;9.13;8.40;;;22.60;60.80;;;;;;6189059;28;20289;-79
2023/09/26 11:08:49;;;;;;;10.33;8.87;;;22.80;60.70;;;;;;6182988;28;20272;-79
2023/09/26 11:11:55;;;;;;;9.50;8.07;;;22.90;60.90;;;;;;6190353;28;20663;-76
2023/09/26 11:15:00;;;;;;;9.30;8.60;;;22.80;61.20;;;;;;6190870;28;20240;-76
2023/09/26 11:18:03;;;;;;;9.07;8.43;;;22.80;61.10;;;;;;6189873;28;20673;-80
2023/09/26 11:21:07;;;;;;;8.57;7.80;;;22.90;60.20;;;;;;6190981;28;20239;-79
2023/09/26 11:24:31;;;;;;;11.20;9.07;;;22.80;60.50;;;;;;6188957;28;20240;-77
2023/09/26 11:27:37;;;;;;;9.87;8.97;;;22.90;60.20;;;;;;6191997;28;20247;-80
2023/09/26 11:30:43;;;;;;;9.70;8.87;;;22.80;60.50;;;;;;6190869;28;20244;-77
2023/09/26 11:33:46;;;;;;;9.90;9.00;;;23.00;60.80;;;;;;6189696;28;20239;-79
2023/09/26 11:36:50;;;;;;;8.07;7.53;;;23.00;60.10;;;;;;6188296;28;20939;-77
2023/09/26 11:39:55;;;;;;;8.87;8.07;;;23.00;60.20;;;;;;6189019;28;20240;-75
2023/09/26 11:43:03;;;;;;;9.20;8.60;;;23.00;60.50;;;;;;6191051;28;20244;-78
2023/09/26 11:46:06;;;;;;;7.73;7.10;;;23.20;60.30;;;;;;6190475;28;20766;-80
2023/09/26 11:49:09;;;;;;;9.50;8.70;;;23.30;60.50;;;;;;6178734;28;20239;-81
2023/09/26 11:52:12;;;;;;;9.43;8.70;;;23.50;59.70;;;;;;6192477;28;20343;-80
2023/09/26 11:55:17;;;;;;;8.40;7.70;;;23.60;59.50;;;;;;6188402;28;20307;-80
2023/09/26 11:58:21;;;;;;;8.20;7.67;;;23.70;59.80;;;;;;6193058;28;20709;-82
2023/09/26 12:01:24;;;;;;;9.60;8.70;;;23.80;59.50;;;;;;6191992;28;20331;-80
2023/09/26 12:04:28;;;;;;;8.13;7.57;;;23.80;59.10;;;;;;6193660;28;20252;-79
2023/09/26 12:07:31;;;;;;;8.27;7.57;;;23.90;59.70;;;;;;6193539;28;20302;-78
2023/09/26 12:10:38;;;;;;;8.93;7.93;;;23.90;59.30;;;;;;6191214;28;21663;-78
2023/09/26 12:13:46;;;;;;;10.67;8.10;;;24.00;59.50;;;;;;6190955;28;20770;-77
2023/09/26 12:16:50;;;;;;;8.53;7.83;;;24.20;59.40;;;;;;6190869;28;20236;-80
2023/09/26 12:19:54;;;;;;;7.93;7.43;;;24.20;59.10;;;;;;6187083;28;20298;-80
2023/09/26 12:23:00;;;;;;;8.63;8.03;;;24.10;59.10;;;;;;6190403;28;20617;-78
2023/09/26 12:26:05;;;;;;;8.70;8.00;;;24.10;59.00;;;;;;6188780;28;20259;-80
2023/09/26 12:29:09;;;;;;;8.13;7.67;;;24.20;58.80;;;;;;6183884;28;20239;-79
2023/09/26 12:32:12;;;;;;;10.13;8.10;;;24.20;59.00;;;;;;6190035;28;20905;-80
2023/09/26 12:35:15;;;;;;;8.80;8.00;;;24.40;59.00;;;;;;6186502;28;20330;-80
2023/09/26 12:38:19;;;;;;;7.50;7.10;;;24.20;59.00;;;;;;6190031;28;20762;-80
2023/09/26 12:41:24;;;;;;;8.33;7.73;;;24.30;59.40;;;;;;6188784;28;20231;-80
2023/09/26 12:44:28;;;;;;;8.57;8.00;;;24.50;59.20;;;;;;6190081;28;20667;-79
2023/09/26 12:47:31;;;;;;;8.80;8.00;;;24.50;59.30;;;;;;6188009;28;20270;-77
2023/09/26 12:50:36;;;;;;;7.10;6.70;;;24.50;58.60;;;;;;6187593;28;20507;-81
2023/09/26 12:53:39;;;;;;;7.63;7.20;;;24.70;58.50;;;;;;6187654;28;20239;-81
2023/09/26 12:56:43;;;;;;;11.77;7.37;;;24.70;58.40;;;;;;6189371;28;20304;-80
2023/09/26 12:59:46;;;;;;;8.77;7.80;;;24.80;58.30;;;;;;6188273;28;20322;-83
2023/09/26 13:02:49;;;;;;;8.47;7.87;;;24.80;58.30;;;;;;6189584;28;20239;-81
2023/09/26 13:05:53;;;;;;;8.83;7.27;;;24.80;58.20;;;;;;6189149;28;20927;-80
2023/09/26 13:08:56;;;;;;;9.70;7.83;;;24.70;58.10;;;;;;6188121;28;20251;-81
2023/09/26 13:12:00;;;;;;;8.57;7.37;;;24.80;58.20;;;;;;6188829;28;20236;-82
2023/09/26 13:15:04;;;;;;;7.93;7.40;;;24.90;58.60;;;;;;6186494;28;20317;-81
2023/09/26 13:18:08;;;;;;;8.13;7.33;;;24.90;57.70;;;;;;6188931;28;20283;-78
2023/09/26 13:21:12;;;;;;;7.77;7.03;;;24.90;57.90;;;;;;6177848;28;20236;-82
2023/09/26 13:24:15;;;;;;;7.93;6.50;;;25.00;58.20;;;;;;6187702;28;20239;-82
2023/09/26 13:27:21;;;;;;;10.37;6.70;;;25.00;57.70;;;;;;6185981;28;21009;-82
2023/09/26 13:30:26;;;;;;;6.37;5.97;;;25.10;57.80;;;;;;6190121;28;20751;-81
2023/09/26 13:33:29;;;;;;;7.50;7.00;;;25.00;57.90;;;;;;6187698;28;20302;-80
2023/09/26 13:36:32;;;;;;;7.30;6.90;;;25.00;57.70;;;;;;6196717;28;20243;-79
2023/09/26 13:39:35;;;;;;;7.47;6.80;;;25.10;57.90;;;;;;6193577;28;20232;-81
2023/09/26 13:42:40;;;;;;;7.83;6.83;;;25.10;57.60;;;;;;6185162;28;20235;-82
2023/09/26 13:45:43;;;;;;;7.27;6.67;;;25.00;58.20;;;;;;6195056;28;20234;-83
2023/09/26 13:48:46;;;;;;;8.00;7.33;;;24.80;58.40;;;;;;6195190;28;20239;-80
2023/09/26 13:51:51;;;;;;;8.23;7.53;;;24.60;58.10;;;;;;6193369;28;20236;-81
2023/09/26 13:54:54;;;;;;;8.00;7.37;;;24.40;58.90;;;;;;6190835;28;20255;-82
2023/09/26 13:57:59;;;;;;;7.80;7.30;;;24.40;59.00;;;;;;6195191;28;20248;-81
2023/09/26 14:01:04;;;;;;;8.77;7.87;;;24.40;59.30;;;;;;6191653;28;20346;-83
2023/09/26 14:04:07;;;;;;;9.20;8.30;;;24.40;59.60;;;;;;6192562;28;20326;-79
2023/09/26 14:07:10;;;;;;;8.50;7.73;;;24.40;59.20;;;;;;6193553;28;20711;-78
2023/09/26 14:10:14;;;;;;;8.30;7.70;;;24.40;58.50;;;;;;6189582;28;20240;-82
2023/09/26 14:13:23;;;;;;;7.60;7.23;;;24.20;59.00;;;;;;6193356;28;20246;-81
2023/09/26 14:16:26;;;;;;;9.43;8.33;;;24.30;59.60;;;;;;6192530;28;20244;-80
2023/09/26 14:19:29;;;;;;;7.83;7.33;;;24.30;58.90;;;;;;6189761;28;20735;-82
2023/09/26 14:22:32;;;;;;;7.90;7.37;;;24.40;59.20;;;;;;6193148;28;20236;-82
2023/09/26 14:25:35;;;;;;;8.10;7.57;;;24.30;59.10;;;;;;6192040;28;20278;-81
2023/09/26 14:28:41;;;;;;;7.93;7.20;;;24.20;59.40;;;;;;6192259;28;20239;-82
2023/09/26 14:31:44;;;;;;;9.83;8.97;;;24.00;59.80;;;;;;6198397;28;20239;-80
2023/09/26 14:34:47;;;;;;;8.33;7.63;;;24.00;60.30;;;;;;6190784;28;20244;-82
2023/09/26 14:37:51;;;;;;;8.13;7.50;;;24.00;60.10;;;;;;6187169;28;20315;-81
2023/09/26 14:40:54;;;;;;;8.90;8.00;;;23.90;59.70;;;;;;6178723;28;20235;-83
2023/09/26 14:43:59;;;;;;;8.10;7.33;;;23.90;60.10;;;;;;6192365;28;20909;-83
2023/09/26 14:47:03;;;;;;;7.93;7.20;;;23.90;60.20;;;;;;6186022;28;20906;-81
2023/09/26 14:50:07;;;;;;;13.83;8.03;;;24.00;60.20;;;;;;6198118;28;20681;-83
2023/09/26 14:53:11;;;;;;;8.97;8.20;;;23.80;60.40;;;;;;6191453;28;20240;-81
2023/09/26 14:56:16;;;;;;;8.30;7.60;;;23.60;60.60;;;;;;6188783;28;20315;-83
2023/09/26 14:59:21;;;;;;;10.47;8.17;;;23.60;60.80;;;;;;6190812;28;20356;-81
2023/09/26 15:02:25;;;;;;;8.27;7.67;;;23.70;60.70;;;;;;6190085;28;20244;-85
2023/09/26 15:05:28;;;;;;;9.63;7.63;;;23.80;60.60;;;;;;6188219;28;20240;-82
2023/09/26 15:08:31;;;;;;;8.60;7.83;;;23.90;60.50;;;;;;6187853;28;20747;-81
2023/09/26 15:11:36;;;;;;;9.67;8.70;;;23.90;60.10;;;;;;6192021;28;20950;-80
2023/09/26 15:14:41;;;;;;;9.27;8.37;;;23.80;59.70;;;;;;6192136;28;20239;-81
2023/09/26 15:17:46;;;;;;;9.33;8.60;;;23.80;60.30;;;;;;6190890;28;20755;-79
2023/09/26 15:20:49;;;;;;;8.30;7.83;;;23.80;60.30;;;;;;6186516;28;20311;-82
2023/09/26 15:23:52;;;;;;;8.40;7.90;;;23.70;60.50;;;;;;6190202;28;20239;-82
2023/09/26 15:26:55;;;;;;;9.13;8.43;;;23.60;60.20;;;;;;6186915;28;20228;-82
2023/09/26 15:30:00;;;;;;;8.20;7.60;;;23.60;60.70;;;;;;6191952;28;20235;-75
2023/09/26 15:33:03;;;;;;;8.73;7.90;;;23.50;61.00;;;;;;6189684;28;20763;-76
2023/09/26 15:36:07;;;;;;;8.97;8.27;;;23.40;60.90;;;;;;6188749;28;20239;-76
2023/09/26 15:39:10;;;;;;;8.57;7.93;;;23.30;61.30;;;;;;6186558;28;20258;-76
2023/09/26 15:42:13;;;;;;;9.07;8.37;;;23.30;61.40;;;;;;6171853;28;20247;-76
2023/09/26 15:45:20;;;;;;;9.20;8.60;;;23.30;61.40;;;;;;6183735;28;20240;-80